Time;durP1;ratioP1;P1;durP2;ratioP2;P2;SDS_P1;SDS_P2;PMS_P1;PMS_P2;Temp;Humidity;BMP_temperature;BMP_pressure;BME280_temperature;BME280_humidity;BME280_pressure;Samples;Min_cycle;Max_cycle;Signal;HPM_P1;HPM_P2
2023/01/15 00:00:26;;;;;;;6.43;1.40;;;8.30;99.90;;;;;;4861208;29;20200;-88
2023/01/15 00:02:52;;;;;;;2.60;1.10;;;8.30;99.90;;;;;;4871065;29;20210;-91
2023/01/15 00:05:17;;;;;;;1.60;0.80;;;8.20;99.90;;;;;;4857543;29;20590;-89
2023/01/15 00:07:43;;;;;;;3.00;0.90;;;8.20;99.90;;;;;;4877391;29;20248;-89
2023/01/15 00:10:09;;;;;;;3.60;1.20;;;8.10;99.90;;;;;;4874554;29;20207;-89
2023/01/15 00:12:35;;;;;;;2.58;1.38;;;8.10;99.90;;;;;;4858650;29;20196;-89
2023/01/15 00:15:00;;;;;;;2.17;1.20;;;8.00;99.90;;;;;;4857621;29;20224;-89
2023/01/15 00:17:28;;;;;;;3.73;1.00;;;8.00;99.90;;;;;;4868850;29;20211;-88
2023/01/15 00:19:54;;;;;;;1.88;1.20;;;8.00;99.90;;;;;;4874620;29;20211;-89
2023/01/15 00:22:20;;;;;;;3.37;1.00;;;7.90;99.90;;;;;;4875661;29;20570;-90
2023/01/15 00:30:16;;;;;;;4.20;1.67;;;7.90;99.90;;;;;;4874159;29;20207;-88
2023/01/15 00:32:42;;;;;;;1.33;0.60;;;7.90;99.90;;;;;;4873123;29;20511;-89
2023/01/15 00:35:14;;;;;;;3.33;1.23;;;7.80;99.90;;;;;;4868189;29;20179;-89
2023/01/15 00:37:40;;;;;;;1.80;0.77;;;7.80;99.90;;;;;;4861140;29;20203;-89
2023/01/15 00:40:09;;;;;;;1.97;0.80;;;7.80;99.90;;;;;;4876126;29;20229;-89
2023/01/15 00:42:37;;;;;;;2.45;0.80;;;7.80;19.70;;;;;;4877182;29;20242;-89
2023/01/15 00:45:09;;;;;;;1.70;0.90;;;7.70;1.00;;;;;;4858162;29;20667;-89
2023/01/15 00:47:46;;;;;;;1.23;0.80;;;7.70;1.00;;;;;;4860917;29;20214;-89
2023/01/15 00:50:20;;;;;;;1.73;1.00;;;7.70;1.00;;;;;;4874229;29;20207;-88
2023/01/15 00:52:46;;;;;;;1.90;1.10;;;7.70;1.00;;;;;;4848202;29;20201;-87
2023/01/15 00:55:11;;;;;;;4.43;0.90;;;7.70;99.90;;;;;;4858563;29;20191;-86
2023/01/15 00:57:37;;;;;;;2.27;0.70;;;7.70;99.90;;;;;;4871625;29;20564;-86
2023/01/15 01:00:08;;;;;;;1.10;0.80;;;7.70;99.90;;;;;;4855858;29;20647;-89
2023/01/15 01:02:34;;;;;;;3.50;1.02;;;7.70;99.90;;;;;;4874977;29;20302;-88
2023/01/15 01:04:59;;;;;;;2.50;0.90;;;7.60;1.00;;;;;;4877461;29;20255;-88
2023/01/15 01:07:25;;;;;;;1.70;0.63;;;7.60;1.00;;;;;;4859596;29;20185;-89
2023/01/15 01:09:53;;;;;;;2.33;1.03;;;7.60;99.90;;;;;;4860753;29;20203;-88
2023/01/15 01:12:20;;;;;;;3.83;1.00;;;7.60;99.90;;;;;;4876645;29;20204;-88
2023/01/15 01:14:45;;;;;;;1.45;1.35;;;7.70;99.90;;;;;;4861426;29;20263;-88
2023/01/15 01:17:11;;;;;;;1.13;0.63;;;7.60;99.90;;;;;;4870889;29;20271;-88
2023/01/15 01:19:37;;;;;;;2.30;0.80;;;7.60;1.00;;;;;;4876085;29;20210;-88
2023/01/15 01:22:02;;;;;;;2.40;1.20;;;7.60;28.10;;;;;;4861503;29;20306;-89
2023/01/15 01:24:28;;;;;;;1.47;0.60;;;7.60;1.00;;;;;;4880209;29;20180;-88
2023/01/15 01:26:54;;;;;;;7.60;0.90;;;7.60;1.00;;;;;;4863540;29;20187;-89
2023/01/15 01:29:21;;;;;;;1.58;0.80;;;7.60;1.00;;;;;;4863584;29;20351;-89
2023/01/15 01:31:47;;;;;;;1.63;0.70;;;7.60;1.00;;;;;;4860294;29;20183;-88
2023/01/15 01:34:13;;;;;;;3.38;0.77;;;7.60;1.00;;;;;;4860808;29;20195;-87
2023/01/15 01:36:41;;;;;;;2.58;0.60;;;7.60;1.00;;;;;;4858639;29;20215;-87
2023/01/15 01:39:13;;;;;;;1.85;0.80;;;7.60;1.00;;;;;;4874487;29;20192;-87
2023/01/15 01:41:42;;;;;;;2.55;0.80;;;7.50;1.00;;;;;;4877290;29;20211;-86
2023/01/15 01:44:36;;;;;;;4.15;0.98;;;7.50;94.50;;;;;;4868958;29;20184;-86
2023/01/15 01:47:08;;;;;;;1.25;0.65;;;7.50;99.90;;;;;;4864878;29;20656;-86
2023/01/15 01:49:46;;;;;;;4.50;0.90;;;7.50;99.90;;;;;;4875936;29;20591;-86
2023/01/15 01:52:19;;;;;;;2.33;0.60;;;7.50;99.90;;;;;;4873234;29;20196;-88
2023/01/15 01:54:46;;;;;;;2.88;0.82;;;7.50;99.90;;;;;;4861431;29;20686;-88
2023/01/15 01:57:13;;;;;;;1.75;0.80;;;7.50;99.90;;;;;;4876553;29;20668;-86
2023/01/15 01:59:39;;;;;;;2.65;0.90;;;7.50;99.90;;;;;;4877096;29;20215;-86
2023/01/15 02:02:12;;;;;;;3.00;0.88;;;7.50;99.90;;;;;;4859314;29;20683;-86
2023/01/15 02:04:37;;;;;;;3.45;1.13;;;7.50;99.90;;;;;;4862631;29;20571;-89
2023/01/15 02:07:04;;;;;;;2.70;0.90;;;7.50;1.00;;;;;;4860373;29;20187;-88
2023/01/15 02:09:30;;;;;;;2.28;0.80;;;7.50;1.00;;;;;;4863196;29;20440;-88
2023/01/15 02:12:00;;;;;;;0.90;0.60;;;7.50;1.00;;;;;;4861572;29;20235;-88
2023/01/15 02:14:33;;;;;;;2.95;1.23;;;7.50;1.00;;;;;;4875796;29;20446;-88
2023/01/15 02:17:17;;;;;;;3.65;1.00;;;7.50;1.00;;;;;;4859274;29;20191;-88
2023/01/15 02:20:15;;;;;;;8.35;0.95;;;7.50;99.90;;;;;;4860020;29;20231;-88
2023/01/15 02:23:07;;;;;;;1.40;0.80;;;7.60;99.90;;;;;;4855105;29;20223;-88
2023/01/15 02:25:51;;;;;;;1.67;0.65;;;7.60;99.90;;;;;;4877021;29;20243;-88
2023/01/15 02:28:39;;;;;;;2.35;0.70;;;7.50;99.90;;;;;;4857902;29;20279;-88
2023/01/15 02:31:14;;;;;;;2.38;0.90;;;7.60;1.00;;;;;;4876097;29;20256;-88
2023/01/15 02:33:54;;;;;;;2.60;1.05;;;7.60;1.00;;;;;;4876939;29;20227;-89
2023/01/15 02:36:23;;;;;;;5.57;0.70;;;7.60;1.00;;;;;;4854222;29;20187;-88
2023/01/15 02:38:54;;;;;;;1.50;0.75;;;7.60;1.00;;;;;;4861046;29;20549;-88
2023/01/15 02:41:24;;;;;;;1.83;0.80;;;7.60;1.00;;;;;;4871166;29;20845;-88
2023/01/15 02:43:55;;;;;;;2.97;1.02;;;7.60;1.00;;;;;;4867457;29;20196;-88
2023/01/15 02:46:26;;;;;;;2.95;0.98;;;7.60;1.00;;;;;;4869704;29;20180;-89
2023/01/15 02:48:53;;;;;;;3.10;1.33;;;7.60;99.90;;;;;;4881059;29;20262;-88
2023/01/15 02:51:23;;;;;;;2.67;0.77;;;7.60;1.00;;;;;;4876355;29;20235;-89
2023/01/15 02:53:54;;;;;;;4.78;1.23;;;7.60;1.00;;;;;;4858044;29;20244;-88
2023/01/15 02:56:25;;;;;;;4.05;1.30;;;7.60;1.00;;;;;;4876529;29;20196;-88
2023/01/15 02:58:59;;;;;;;2.90;1.52;;;7.60;1.00;;;;;;4856938;29;20236;-88
2023/01/15 03:01:40;;;;;;;9.63;1.08;;;7.60;1.00;;;;;;4875508;29;20218;-88
2023/01/15 03:04:22;;;;;;;3.80;1.30;;;7.60;1.00;;;;;;4859754;29;20227;-87
2023/01/15 03:07:05;;;;;;;1.58;0.93;;;7.60;1.00;;;;;;4873746;29;20203;-88
2023/01/15 03:09:31;;;;;;;5.50;1.05;;;7.60;1.00;;;;;;4870141;29;20203;-88
2023/01/15 03:12:17;;;;;;;4.07;0.90;;;7.60;1.00;;;;;;4876685;29;20199;-88
2023/01/15 03:15:10;;;;;;;4.45;1.02;;;7.60;1.00;;;;;;4875582;29;20267;-88
2023/01/15 03:17:46;;;;;;;3.17;0.90;;;7.60;1.00;;;;;;4856411;29;20250;-88
2023/01/15 03:20:19;;;;;;;3.13;0.90;;;7.60;1.00;;;;;;4875400;29;20685;-88
2023/01/15 03:22:50;;;;;;;4.15;1.13;;;7.60;1.00;;;;;;4874170;29;20270;-88
2023/01/15 03:25:23;;;;;;;2.88;0.80;;;7.60;1.00;;;;;;4874933;29;20205;-88
2023/01/15 03:27:54;;;;;;;5.60;1.00;;;7.60;1.00;;;;;;4859138;29;20191;-88
2023/01/15 03:30:20;;;;;;;3.42;0.93;;;7.60;1.00;;;;;;4859388;29;20213;-88
2023/01/15 03:32:46;;;;;;;4.30;1.15;;;7.60;99.90;;;;;;4871982;29;20263;-88
2023/01/15 03:35:57;;;;;;;3.90;1.20;;;7.50;99.90;;;;;;4873700;29;20202;-88
2023/01/15 03:38:34;;;;;;;4.63;0.98;;;7.50;99.90;;;;;;4872458;29;20618;-87
2023/01/15 03:41:23;;;;;;;3.85;0.90;;;7.50;1.00;;;;;;4859919;29;20223;-87
2023/01/15 03:44:09;;;;;;;1.92;0.98;;;7.50;1.00;;;;;;4871706;29;20548;-88
2023/01/15 03:46:56;;;;;;;2.22;0.90;;;7.50;99.90;;;;;;4869774;29;20604;-89
2023/01/15 03:49:27;;;;;;;4.18;0.80;;;7.50;99.90;;;;;;4870608;29;20719;-88
2023/01/15 03:52:02;;;;;;;6.50;1.17;;;7.50;99.90;;;;;;4855935;29;20727;-88
2023/01/15 03:54:47;;;;;;;6.63;1.67;;;7.50;99.90;;;;;;4875673;29;20199;-88
2023/01/15 03:57:41;;;;;;;7.10;1.00;;;7.50;99.90;;;;;;4870388;29;20203;-88
2023/01/15 04:00:24;;;;;;;6.30;1.88;;;7.50;99.90;;;;;;4867682;29;20258;-88
2023/01/15 04:02:52;;;;;;;2.28;0.85;;;7.50;99.90;;;;;;4873358;29;20298;-88
2023/01/15 04:05:18;;;;;;;3.83;1.10;;;7.50;99.90;;;;;;4856380;29;20302;-88
2023/01/15 04:07:46;;;;;;;5.68;1.00;;;7.50;99.90;;;;;;4872534;29;20180;-88
2023/01/15 04:10:12;;;;;;;2.30;1.00;;;7.50;99.90;;;;;;4874200;29;20247;-87
2023/01/15 04:12:38;;;;;;;4.37;1.10;;;7.50;99.90;;;;;;4858103;29;20295;-87
2023/01/15 04:15:03;;;;;;;2.60;0.90;;;7.40;99.90;;;;;;4873314;29;20191;-87
2023/01/15 04:17:29;;;;;;;5.87;1.10;;;7.50;1.00;;;;;;4858872;29;20179;-88
2023/01/15 04:19:55;;;;;;;7.10;1.47;;;7.50;1.00;;;;;;4875892;29;20490;-87
2023/01/15 04:22:20;;;;;;;6.70;1.27;;;7.50;99.90;;;;;;4873830;29;20250;-87
2023/01/15 04:24:46;;;;;;;3.53;1.27;;;7.50;99.90;;;;;;4857534;29;21064;-88
2023/01/15 04:27:11;;;;;;;6.53;1.70;;;7.50;99.90;;;;;;4874210;29;20188;-87
2023/01/15 04:29:37;;;;;;;6.57;1.20;;;7.50;99.90;;;;;;4873771;29;20214;-87
2023/01/15 04:32:03;;;;;;;4.73;0.93;;;7.50;99.90;;;;;;4874563;29;20748;-84
2023/01/15 04:34:29;;;;;;;4.60;1.43;;;7.50;1.00;;;;;;4872622;29;20195;-85
2023/01/15 04:36:55;;;;;;;3.80;1.13;;;7.50;1.00;;;;;;4874650;29;20180;-86
2023/01/15 04:39:21;;;;;;;4.10;1.17;;;7.50;1.00;;;;;;4873016;29;21927;-88
2023/01/15 04:44:36;;;;;;;5.20;1.08;;;7.50;1.00;;;;;;4873241;29;20483;-88
2023/01/15 04:47:08;;;;;;;4.97;1.40;;;7.50;1.00;;;;;;4856981;29;20188;-88
2023/01/15 04:49:34;;;;;;;4.00;1.27;;;7.50;1.00;;;;;;4857802;29;20203;-87
2023/01/15 04:52:00;;;;;;;6.68;2.17;;;7.50;1.00;;;;;;4874353;29;20185;-87
2023/01/15 04:54:26;;;;;;;11.60;1.87;;;7.50;1.00;;;;;;4875518;29;20652;-88
2023/01/15 04:56:53;;;;;;;4.10;1.40;;;7.50;75.60;;;;;;4874406;29;20200;-88
2023/01/15 04:59:21;;;;;;;4.40;1.30;;;7.50;99.90;;;;;;4877091;29;20193;-87
2023/01/15 05:01:47;;;;;;;7.28;1.55;;;7.50;99.90;;;;;;4877000;29;20305;-88
2023/01/15 05:04:13;;;;;;;3.37;1.13;;;7.50;99.90;;;;;;4877070;29;20664;-88
2023/01/15 05:06:38;;;;;;;7.90;1.10;;;7.50;11.10;;;;;;4861487;29;20683;-88
2023/01/15 05:09:04;;;;;;;4.93;1.33;;;7.50;1.00;;;;;;4878664;29;20241;-87
2023/01/15 05:11:34;;;;;;;7.23;2.70;;;7.60;1.00;;;;;;4878596;29;20222;-87
2023/01/15 05:14:00;;;;;;;3.90;1.70;;;7.60;99.90;;;;;;4859917;29;20460;-87
2023/01/15 05:16:29;;;;;;;6.40;1.90;;;7.60;99.90;;;;;;4874379;29;20191;-87
2023/01/15 05:18:58;;;;;;;4.78;1.25;;;7.60;99.90;;;;;;4862531;29;20247;-88
2023/01/15 05:21:26;;;;;;;5.20;1.40;;;7.60;99.90;;;;;;4874973;29;20215;-87
2023/01/15 05:23:54;;;;;;;10.77;1.40;;;7.50;99.90;;;;;;4860912;29;20200;-88
2023/01/15 05:26:20;;;;;;;4.38;1.60;;;7.50;26.00;;;;;;4860905;29;20192;-87
2023/01/15 05:28:47;;;;;;;5.63;1.60;;;7.60;1.00;;;;;;4860753;29;20274;-88
2023/01/15 05:31:14;;;;;;;4.95;1.45;;;7.50;1.00;;;;;;4877167;29;20262;-88
2023/01/15 05:33:41;;;;;;;7.68;1.50;;;7.50;15.80;;;;;;4856108;29;20809;-88
2023/01/15 05:36:11;;;;;;;6.82;1.88;;;7.50;29.10;;;;;;4877367;29;20188;-87
2023/01/15 05:38:37;;;;;;;7.97;1.50;;;7.50;99.90;;;;;;4861103;29;20291;-88
2023/01/15 05:43:54;;;;;;;4.15;1.30;;;7.50;99.90;;;;;;4875736;29;20243;-87
2023/01/15 05:46:22;;;;;;;4.10;1.02;;;7.50;99.90;;;;;;4876547;29;20199;-88
2023/01/15 05:48:48;;;;;;;8.32;2.10;;;7.50;99.90;;;;;;4862403;29;20663;-88
2023/01/15 05:51:14;;;;;;;4.57;1.20;;;7.50;99.90;;;;;;4875179;29;20275;-87
2023/01/15 05:53:39;;;;;;;10.93;1.30;;;7.40;99.90;;;;;;4860233;29;20830;-86
2023/01/15 05:56:06;;;;;;;5.30;2.73;;;7.50;99.90;;;;;;4876998;29;20519;-87
2023/01/15 05:58:32;;;;;;;3.13;0.90;;;7.50;1.00;;;;;;4860007;29;20207;-85
2023/01/15 06:00:58;;;;;;;4.07;1.10;;;7.50;1.00;;;;;;4874994;29;20219;-88
2023/01/15 06:03:25;;;;;;;4.17;1.40;;;7.50;1.00;;;;;;4876488;29;20191;-88
2023/01/15 06:05:54;;;;;;;3.55;1.13;;;7.50;1.00;;;;;;4876634;29;20829;-88
2023/01/15 06:08:22;;;;;;;4.60;1.33;;;7.50;1.00;;;;;;4857286;29;20183;-87
2023/01/15 06:10:48;;;;;;;3.60;1.38;;;7.40;1.00;;;;;;4878257;29;20234;-88
2023/01/15 06:13:15;;;;;;;5.65;1.20;;;7.40;1.00;;;;;;4873699;29;20202;-87
2023/01/15 06:15:41;;;;;;;2.35;1.05;;;7.40;1.00;;;;;;4860945;29;20266;-87
2023/01/15 06:18:10;;;;;;;2.15;0.85;;;7.40;1.00;;;;;;4876815;29;20216;-87
2023/01/15 06:20:41;;;;;;;7.28;1.13;;;7.40;99.90;;;;;;4884034;29;20214;-87
2023/01/15 06:23:07;;;;;;;5.43;0.95;;;7.40;99.90;;;;;;4870062;29;20191;-87
2023/01/15 06:25:36;;;;;;;5.75;1.13;;;7.40;99.90;;;;;;4876060;29;20653;-86
2023/01/15 06:28:08;;;;;;;5.00;0.90;;;7.40;99.90;;;;;;4874004;29;20585;-88
2023/01/15 06:30:36;;;;;;;1.88;1.05;;;7.40;99.90;;;;;;4871267;29;20278;-87
2023/01/15 06:33:01;;;;;;;2.90;1.48;;;7.40;99.90;;;;;;4860680;29;20188;-88
2023/01/15 06:35:27;;;;;;;3.00;2.00;;;7.40;99.90;;;;;;4876322;29;20732;-88
2023/01/15 06:37:52;;;;;;;3.83;1.00;;;7.40;99.90;;;;;;4871613;29;20195;-88
2023/01/15 06:40:18;;;;;;;5.57;1.10;;;7.40;99.90;;;;;;4874983;29;20227;-86
2023/01/15 06:48:24;;;;;;;3.60;0.90;;;7.40;99.90;;;;;;4872287;29;20192;-87
2023/01/15 06:50:49;;;;;;;2.72;1.40;;;7.40;1.00;;;;;;4875862;29;20207;-86
2023/01/15 06:53:18;;;;;;;7.70;1.87;;;7.40;1.00;;;;;;4873601;29;20624;-88
2023/01/15 06:55:44;;;;;;;2.53;1.30;;;7.40;1.00;;;;;;4876943;29;20557;-88
2023/01/15 06:58:26;;;;;;;6.67;1.80;;;7.40;99.90;;;;;;4871632;29;20196;-87
2023/01/15 07:00:55;;;;;;;9.13;1.33;;;7.40;1.00;;;;;;4856010;29;20278;-87
2023/01/15 07:03:22;;;;;;;5.75;1.88;;;7.40;99.90;;;;;;4854935;29;20712;-87
2023/01/15 07:05:48;;;;;;;8.20;1.30;;;7.30;99.90;;;;;;4873914;29;20219;-87
2023/01/15 07:08:17;;;;;;;5.07;1.40;;;7.40;99.90;;;;;;4858823;29;20191;-87
2023/01/15 07:10:52;;;;;;;6.97;1.10;;;7.30;99.90;;;;;;4860656;29;20207;-88
2023/01/15 07:13:18;;;;;;;3.90;1.60;;;7.30;99.90;;;;;;4875652;29;20210;-87
2023/01/15 07:15:43;;;;;;;7.90;1.83;;;7.30;99.90;;;;;;4873370;29;20187;-87
2023/01/15 07:18:09;;;;;;;4.50;0.90;;;7.30;1.00;;;;;;4875402;29;20266;-86
2023/01/15 07:20:34;;;;;;;5.43;1.07;;;7.30;1.00;;;;;;4875441;29;20631;-87
2023/01/15 07:23:00;;;;;;;5.20;1.23;;;7.30;1.00;;;;;;4874946;29;20216;-88
2023/01/15 07:25:25;;;;;;;7.77;1.50;;;7.30;1.00;;;;;;4875817;29;20199;-87
2023/01/15 07:27:51;;;;;;;3.30;1.10;;;7.30;1.00;;;;;;4860435;29;20191;-86
2023/01/15 07:30:17;;;;;;;2.47;1.20;;;7.30;1.00;;;;;;4877429;29;20215;-86
2023/01/15 07:32:42;;;;;;;9.60;1.57;;;7.30;1.00;;;;;;4858418;29;20232;-86
2023/01/15 07:35:09;;;;;;;1.70;0.90;;;7.40;99.90;;;;;;4862134;29;20455;-86
2023/01/15 07:37:34;;;;;;;2.88;1.08;;;7.40;99.90;;;;;;4861175;29;20220;-86
2023/01/15 07:40:00;;;;;;;3.27;0.90;;;7.40;1.00;;;;;;4880225;29;20285;-86
2023/01/15 07:50:38;;;;;;;4.65;1.00;;;7.40;1.00;;;;;;4878047;29;20219;-86
2023/01/15 07:53:03;;;;;;;4.30;1.13;;;7.40;1.00;;;;;;4876929;29;20188;-86
2023/01/15 07:55:29;;;;;;;8.50;1.10;;;7.40;1.00;;;;;;4876675;29;20192;-86
2023/01/15 07:58:04;;;;;;;4.20;1.17;;;7.40;99.90;;;;;;4877038;29;20199;-84
2023/01/15 08:00:30;;;;;;;2.88;0.70;;;7.30;1.00;;;;;;4862499;29;20287;-86
2023/01/15 08:02:56;;;;;;;2.40;0.70;;;7.30;99.90;;;;;;4878961;29;20255;-86
2023/01/15 08:05:21;;;;;;;3.07;0.80;;;7.30;99.90;;;;;;4877116;29;20199;-86
2023/01/15 08:07:47;;;;;;;1.83;0.80;;;7.30;59.40;;;;;;4879216;29;20203;-86
2023/01/15 08:10:13;;;;;;;4.38;0.80;;;7.30;1.00;;;;;;4863264;29;20215;-86
2023/01/15 08:15:23;;;;;;;2.83;0.95;;;7.20;1.00;;;;;;4879351;29;20224;-86
2023/01/15 08:17:51;;;;;;;1.50;0.60;;;7.20;1.00;;;;;;4880611;29;20200;-86
2023/01/15 08:20:22;;;;;;;4.80;1.13;;;7.10;29.10;;;;;;4864517;29;20226;-86
2023/01/15 08:23:04;;;;;;;2.03;0.75;;;7.10;99.90;;;;;;4874025;29;20230;-86
2023/01/15 08:25:30;;;;;;;2.22;0.80;;;7.10;99.90;;;;;;4865925;29;20199;-85
2023/01/15 08:28:01;;;;;;;6.03;0.90;;;7.10;99.90;;;;;;4880347;29;20223;-86
2023/01/15 08:30:29;;;;;;;1.27;0.70;;;7.00;99.90;;;;;;4883560;29;20629;-86
2023/01/15 08:32:59;;;;;;;1.40;0.70;;;7.00;99.90;;;;;;4871486;29;20201;-86
2023/01/15 08:35:25;;;;;;;3.25;1.65;;;7.00;1.00;;;;;;4886174;29;20598;-86
2023/01/15 08:37:50;;;;;;;5.23;1.27;;;7.00;1.00;;;;;;4866722;29;20238;-85
2023/01/15 08:40:16;;;;;;;2.50;1.00;;;7.00;1.00;;;;;;4883303;29;20235;-85
2023/01/15 08:42:42;;;;;;;5.27;1.17;;;7.00;99.90;;;;;;4884889;29;20234;-87
2023/01/15 08:45:08;;;;;;;2.80;1.10;;;7.00;99.90;;;;;;4886040;29;20179;-86
2023/01/15 08:47:36;;;;;;;3.67;1.27;;;7.00;99.90;;;;;;4886278;29;20188;-86
2023/01/15 08:50:01;;;;;;;2.90;1.00;;;7.00;99.90;;;;;;4886866;29;20256;-86
2023/01/15 08:52:27;;;;;;;3.77;1.60;;;7.00;1.00;;;;;;4871130;29;20185;-86
2023/01/15 08:55:11;;;;;;;8.20;1.07;;;7.00;1.00;;;;;;4884612;29;20301;-86
2023/01/15 08:57:39;;;;;;;7.85;1.65;;;7.00;1.00;;;;;;4868254;29;20188;-87
2023/01/15 09:00:06;;;;;;;3.33;1.20;;;7.00;1.00;;;;;;4886702;29;20220;-86
2023/01/15 09:02:31;;;;;;;5.25;1.30;;;7.00;1.00;;;;;;4871115;29;20219;-86
2023/01/15 09:04:57;;;;;;;5.00;1.30;;;7.10;1.00;;;;;;4886874;29;20195;-86
2023/01/15 09:07:23;;;;;;;11.93;1.40;;;7.10;1.00;;;;;;4886081;29;20179;-86
2023/01/15 09:09:48;;;;;;;4.37;1.17;;;7.20;99.90;;;;;;4883514;29;20207;-86
2023/01/15 09:12:14;;;;;;;7.40;1.67;;;7.30;99.90;;;;;;4881617;29;20206;-86
2023/01/15 09:14:45;;;;;;;8.43;1.77;;;7.40;20.20;;;;;;4881635;29;20204;-86
2023/01/15 09:17:11;;;;;;;2.87;1.20;;;7.60;13.40;;;;;;4867578;29;20183;-87
2023/01/15 09:19:36;;;;;;;5.33;1.43;;;8.30;1.00;;;;;;4883237;29;21050;-86
2023/01/15 09:22:02;;;;;;;3.97;1.10;;;8.90;99.90;;;;;;4879192;29;20276;-86
2023/01/15 09:24:27;;;;;;;4.17;1.30;;;9.30;1.00;;;;;;4881153;29;20186;-87
2023/01/15 09:26:56;;;;;;;6.53;1.73;;;9.60;99.90;;;;;;4867598;29;20182;-86
2023/01/15 09:29:24;;;;;;;5.90;1.53;;;9.60;39.20;;;;;;4867448;29;20196;-85
2023/01/15 09:31:50;;;;;;;4.13;1.63;;;9.30;1.00;;;;;;4881924;29;20452;-86
2023/01/15 09:34:15;;;;;;;5.50;1.30;;;9.30;1.00;;;;;;4884894;29;20440;-86
2023/01/15 09:36:41;;;;;;;10.20;1.70;;;9.40;1.00;;;;;;4883489;29;20195;-87
2023/01/15 09:39:07;;;;;;;7.60;1.63;;;9.40;1.00;;;;;;4883246;29;20190;-86
2023/01/15 09:42:06;;;;;;;6.83;1.43;;;9.50;1.00;;;;;;4879589;29;20653;-86
2023/01/15 09:45:06;;;;;;;5.40;1.50;;;9.60;1.00;;;;;;4882973;29;20179;-85
2023/01/15 09:47:41;;;;;;;6.47;1.40;;;9.60;1.00;;;;;;4882063;29;20455;-86
2023/01/15 09:50:25;;;;;;;3.43;1.30;;;9.50;1.00;;;;;;4867375;29;20456;-86
2023/01/15 09:52:51;;;;;;;10.80;1.73;;;9.40;1.00;;;;;;4879366;29;20507;-86
2023/01/15 09:55:28;;;;;;;8.83;1.47;;;9.50;1.00;;;;;;4882084;29;20440;-87
2023/01/15 09:57:57;;;;;;;7.87;1.70;;;9.40;1.00;;;;;;4887732;29;20195;-86
2023/01/15 10:00:25;;;;;;;6.47;1.40;;;9.50;1.00;;;;;;4885937;29;20459;-86
2023/01/15 10:03:14;;;;;;;3.37;1.53;;;9.50;1.00;;;;;;4864940;29;20868;-84
2023/01/15 10:05:56;;;;;;;6.37;1.60;;;9.50;1.00;;;;;;4857531;29;20523;-85
2023/01/15 10:08:31;;;;;;;7.23;1.40;;;9.50;1.00;;;;;;4864869;29;20996;-84
2023/01/15 10:11:03;;;;;;;7.53;1.53;;;9.60;1.00;;;;;;4868523;29;20884;-86
2023/01/15 10:14:13;;;;;;;9.90;2.47;;;9.50;1.00;;;;;;4875352;29;20909;-86
2023/01/15 10:16:39;;;;;;;4.03;1.50;;;9.50;1.00;;;;;;4874857;29;20850;-85
2023/01/15 10:19:12;;;;;;;8.97;1.83;;;9.50;1.00;;;;;;4862841;29;20443;-85
2023/01/15 10:21:50;;;;;;;3.57;1.47;;;9.50;1.00;;;;;;4878895;29;20214;-85
2023/01/15 10:24:47;;;;;;;3.20;1.37;;;9.70;1.00;;;;;;4854875;29;20477;-85
2023/01/15 10:27:47;;;;;;;7.93;1.97;;;9.90;1.00;;;;;;4861297;29;22566;-85
2023/01/15 10:30:36;;;;;;;5.00;1.17;;;10.20;1.00;;;;;;4878056;29;20499;-85
2023/01/15 10:33:27;;;;;;;7.93;1.40;;;10.20;1.00;;;;;;4878568;29;20865;-85
2023/01/15 10:36:01;;;;;;;3.23;1.70;;;10.20;1.00;;;;;;4826556;29;21101;-85
2023/01/15 10:38:52;;;;;;;7.20;1.20;;;10.20;99.90;;;;;;4863588;29;20436;-85
2023/01/15 10:41:49;;;;;;;3.50;1.13;;;10.10;99.90;;;;;;4875512;29;20476;-85
2023/01/15 10:44:56;;;;;;;5.80;1.27;;;9.90;99.90;;;;;;4876390;29;20450;-86
2023/01/15 10:47:29;;;;;;;3.67;1.00;;;10.00;99.90;;;;;;4878674;29;20436;-86
2023/01/15 10:49:58;;;;;;;8.60;1.83;;;10.10;99.90;;;;;;4881295;29;20463;-85
2023/01/15 10:52:36;;;;;;;4.33;1.70;;;10.00;99.90;;;;;;4858529;29;20451;-87
2023/01/15 10:55:36;;;;;;;6.13;1.50;;;10.10;99.90;;;;;;4862320;29;20444;-87
2023/01/15 10:59:09;;;;;;;4.03;1.23;;;10.00;99.90;;;;;;4879500;29;20815;-87
2023/01/15 11:01:58;;;;;;;8.60;1.40;;;9.90;99.90;;;;;;4838441;29;20463;-87
2023/01/15 11:04:38;;;;;;;9.37;1.40;;;9.80;99.90;;;;;;4866857;29;20440;-86
2023/01/15 11:10:47;;;;;;;5.60;1.23;;;9.70;99.90;;;;;;4874730;29;20471;-86
2023/01/15 11:19:39;;;;;;;3.10;1.10;;;9.60;99.90;;;;;;4869236;29;20466;-86
2023/01/15 11:22:16;;;;;;;5.27;1.13;;;9.30;99.90;;;;;;4865754;29;20551;-84
2023/01/15 11:25:02;;;;;;;4.93;1.10;;;9.20;99.90;;;;;;4878520;29;20519;-86
2023/01/15 11:27:48;;;;;;;3.07;1.10;;;9.20;99.90;;;;;;4865460;29;20441;-86
2023/01/15 11:30:30;;;;;;;5.57;1.23;;;9.20;99.90;;;;;;4875134;29;20471;-85
2023/01/15 11:33:06;;;;;;;1.60;1.00;;;9.20;99.90;;;;;;4852338;29;20448;-85
2023/01/15 11:35:35;;;;;;;2.40;0.90;;;9.50;99.90;;;;;;4862700;29;20455;-84
2023/01/15 11:38:16;;;;;;;2.27;0.70;;;9.60;99.90;;;;;;4861287;29;20775;-85
2023/01/15 11:40:56;;;;;;;2.80;0.87;;;9.70;99.90;;;;;;4856511;29;21196;-85
2023/01/15 11:52:11;;;;;;;6.30;1.30;;;9.90;99.90;;;;;;4876233;29;21176;-85
2023/01/15 11:54:54;;;;;;;2.33;1.70;;;9.90;99.90;;;;;;4874166;29;20440;-84
2023/01/15 11:57:50;;;;;;;3.27;1.10;;;10.40;99.90;;;;;;4862588;29;20468;-84
2023/01/15 12:00:28;;;;;;;2.10;0.97;;;11.10;99.90;;;;;;4845330;29;20843;-85
2023/01/15 12:03:05;;;;;;;2.90;1.37;;;11.50;99.90;;;;;;4861321;29;20485;-85
2023/01/15 12:05:34;;;;;;;3.33;1.50;;;11.30;99.90;;;;;;4875131;29;20444;-85
2023/01/15 12:08:19;;;;;;;3.20;1.40;;;11.20;99.90;;;;;;4866059;29;20512;-86
2023/01/15 12:11:03;;;;;;;7.00;1.50;;;11.00;99.90;;;;;;4883094;29;20436;-85
2023/01/15 12:13:59;;;;;;;4.80;1.20;;;11.50;99.90;;;;;;4860945;29;20483;-86
2023/01/15 12:16:51;;;;;;;3.27;1.30;;;12.20;99.90;;;;;;4872814;29;20513;-85
2023/01/15 12:19:49;;;;;;;3.87;1.13;;;13.00;99.90;;;;;;4865042;29;20440;-85
2023/01/15 12:22:41;;;;;;;4.70;1.17;;;13.20;99.90;;;;;;4878115;29;21155;-84
2023/01/15 12:25:22;;;;;;;3.50;1.30;;;13.90;99.90;;;;;;4881361;29;20420;-85
2023/01/15 12:27:51;;;;;;;3.87;1.03;;;14.10;99.90;;;;;;4864310;29;20467;-85
2023/01/15 12:30:38;;;;;;;5.00;1.07;;;14.70;99.90;;;;;;4865371;29;20447;-85
2023/01/15 12:33:38;;;;;;;5.07;1.23;;;15.00;99.90;;;;;;4865223;29;20430;-85
2023/01/15 12:36:34;;;;;;;4.97;1.10;;;15.00;99.90;;;;;;4864020;29;20437;-85
2023/01/15 12:39:28;;;;;;;3.50;1.40;;;14.50;99.90;;;;;;4842319;29;20432;-85
2023/01/15 12:45:04;;;;;;;3.27;1.00;;;13.10;99.90;;;;;;4883305;29;20432;-84
2023/01/15 12:47:36;;;;;;;5.77;1.33;;;12.50;99.90;;;;;;4866354;29;20456;-85
2023/01/15 12:50:34;;;;;;;4.50;1.63;;;12.30;99.90;;;;;;4883192;29;20443;-85
2023/01/15 12:53:05;;;;;;;4.23;1.17;;;13.10;99.90;;;;;;4876130;29;20464;-86
2023/01/15 12:55:36;;;;;;;5.10;0.80;;;13.40;99.90;;;;;;4881289;29;20458;-85
2023/01/15 12:58:07;;;;;;;4.30;1.27;;;13.40;99.90;;;;;;4881441;29;20444;-85
2023/01/15 13:00:45;;;;;;;8.30;1.37;;;13.10;99.90;;;;;;4882173;29;20454;-85
2023/01/15 13:03:25;;;;;;;2.70;1.00;;;12.50;99.90;;;;;;4865540;29;20583;-85
2023/01/15 13:05:57;;;;;;;4.33;1.17;;;12.10;99.90;;;;;;4862769;29;20452;-86
2023/01/15 13:08:49;;;;;;;2.47;1.10;;;11.70;99.90;;;;;;4862945;29;20952;-85
2023/01/15 13:11:15;;;;;;;4.83;1.30;;;11.40;99.90;;;;;;4853815;29;21015;-85
2023/01/15 13:13:42;;;;;;;6.03;1.10;;;11.30;99.90;;;;;;4880225;29;20491;-85
2023/01/15 13:16:16;;;;;;;6.50;1.00;;;11.10;99.90;;;;;;4870329;29;20203;-85
2023/01/15 13:18:46;;;;;;;5.07;1.43;;;11.00;99.90;;;;;;4883675;29;20432;-83
2023/01/15 13:21:15;;;;;;;4.40;0.93;;;10.80;99.90;;;;;;4875021;29;20828;-85
2023/01/15 13:23:59;;;;;;;7.03;1.10;;;10.60;99.90;;;;;;4882300;29;20448;-85
2023/01/15 13:27:00;;;;;;;5.80;1.30;;;10.30;99.90;;;;;;4884172;29;20460;-85
2023/01/15 13:30:05;;;;;;;2.83;1.00;;;10.10;99.90;;;;;;4875343;29;20516;-84
2023/01/15 13:33:08;;;;;;;7.77;1.50;;;9.90;99.90;;;;;;4867207;29;20952;-83
2023/01/15 13:36:40;;;;;;;;;;;;;;;;;;;;;
2023/01/15 13:39:50;;;;;;;3.00;0.90;;;9.60;99.90;;;;;;4869722;29;20452;-82
2023/01/15 13:46:04;;;;;;;;;;;;;;;;;;;;;
2023/01/15 13:49:34;;;;;;;;;;;;;;;;;;;;;
2023/01/15 14:34:35;;;;;;;4.17;1.20;;;8.80;99.90;;;;;;4893738;29;20484;-83
2023/01/15 14:37:28;;;;;;;2.90;1.23;;;8.90;99.90;;;;;;4897358;29;20514;-84
2023/01/15 14:43:25;;;;;;;3.07;1.20;;;9.00;99.90;;;;;;4875134;29;20845;-85
2023/01/15 15:08:11;;;;;;;3.53;1.87;;;9.30;99.90;;;;;;4731445;30;20459;-83
2023/01/15 15:14:47;;;;;;;3.37;1.20;;;8.90;99.90;;;;;;4717325;30;20516;-84
2023/01/15 15:18:06;;;;;;;;;;;;;;;;;;;;;
2023/01/15 15:24:36;;;;;;;2.50;0.98;;;8.50;99.90;;;;;;4848249;29;20230;-84
2023/01/15 15:28:10;;;;;;;2.72;0.90;;;8.40;99.90;;;;;;4863696;29;20203;-84
2023/01/15 15:51:31;;;;;;;5.97;1.27;;;7.90;99.90;;;;;;4768973;30;20468;-84
2023/01/15 15:54:32;;;;;;;8.75;1.20;;;7.90;99.90;;;;;;4756436;30;20199;-84
2023/01/15 15:57:22;;;;;;;3.60;0.90;;;7.90;99.90;;;;;;4790464;29;20231;-84
2023/01/15 16:06:59;;;;;;;3.95;1.25;;;7.90;1.00;;;;;;4779927;29;20345;-84
2023/01/15 16:17:36;;;;;;;2.20;1.10;;;7.90;1.00;;;;;;4840523;29;20621;-84
2023/01/15 16:21:14;;;;;;;7.22;1.65;;;7.90;1.00;;;;;;4862772;29;20236;-83
2023/01/15 16:24:18;;;;;;;1.92;0.80;;;7.90;1.00;;;;;;4813952;29;20204;-83
2023/01/15 16:27:40;;;;;;;1.15;0.80;;;7.90;1.00;;;;;;4822527;29;20201;-82